Pulpca — PHMT — position and weather

sailwx.info

Track history (hours):
 
Tides and Currents Weather Stations Pressure Air Temp Water Temp Dewpoint Dewpoint Depression Visibility Wind Speed Wind Dir Waves Ship Positions

Pulpca

Last reported at 2014-Oct-23 02:33 UTC. Time now 2014-Oct-23 16:37 UTC.
Position N 54°08' E 011°11'.

Length 205 m; draft 6.7 m.

Type: Ship (hazmat cat A). MMSI: 245097000.

Date/timePositionNaut miles runAvg speedWind from/ knotsBaromVisibWave heightAir tempDewpointWater temp
2014-Oct-23 02:33N 54°08' E 011°11'1616.3
2014-Oct-23 01:33N 54°17' E 011°34'1716.8
2014-Oct-23 00:33N 54°25' E 011°59'6415.9
2014-Oct-22 20:32N 54°58' E 013°35'1616.7
2014-Oct-22 19:34N 55°04' E 014°01'1716.7
2014-Oct-22 18:33N 55°15' E 014°22'1717.0
2014-Oct-22 17:33N 55°28' E 014°42'1716.7
2014-Oct-22 16:33N 55°37' E 015°08'1816.8
2014-Oct-22 15:30N 55°45' E 015°35'1616.7
2014-Oct-22 14:33N 55°54' E 015°58'1716.8
2014-Oct-22 13:33N 56°03' E 016°24'30516.9
2014-Oct-21 19:33N 59°42' E 023°02'8 1.9
2014-Oct-21 15:27N 59°49' E 022°56'1415.8
2014-Oct-21 14:33N 59°39' E 023°15'2 0.4
2014-Oct-21 08:10N 59°37' E 023°19'1521.6
2014-Oct-21 07:28N 59°48' E 022°58'1 0.3
2014-Oct-21 03:13N 59°49' E 022°57'0 0.0
2014-Oct-20 20:16N 59°49' E 022°57'0 0.0
2014-Oct-20 16:20N 59°49' E 022°57'3 4.3
2014-Oct-20 15:33N 59°47' E 023°00'34719.3
2014-Oct-19 21:33N 55°38' E 015°27'2020.1
2014-Oct-19 20:33N 55°28' E 014°56'1919.4
2014-Oct-19 19:33N 55°16' E 014°29'2019.5
2014-Oct-19 18:33N 55°02' E 014°07'2020.0
2014-Oct-19 17:33N 54°55' E 013°34'4219.9
2014-Oct-19 15:27N 54°38' E 012°27'1719.5
2014-Oct-19 14:33N 54°25' E 012°07'37 2.8
2014-Oct-19 01:33N 54°08' E 011°11'1916.9
2014-Oct-19 00:27N 54°18' E 011°39'1516.7
2014-Oct-18 23:33N 54°26' E 012°01'1715.7
2014-Oct-18 22:28N 54°38' E 012°21'1617.3
2014-Oct-18 21:33N 54°47' E 012°44'3617.2
2014-Oct-18 19:26N 55°01' E 013°42'3216.7
2014-Oct-18 17:32N 55°20' E 014°26'1717.6
2014-Oct-18 16:33N 55°31' E 014°50'1817.7
2014-Oct-18 15:32N 55°40' E 015°17'1717.8
2014-Oct-18 14:33N 55°49' E 015°44'1817.9
2014-Oct-18 13:33N 55°58' E 016°11'30617.7
2014-Oct-17 20:14N 59°38' E 022°52'914.0
2014-Oct-17 19:33N 59°46' E 023°01'4 0.9
2014-Oct-17 15:31N 59°49' E 022°57'2121.2
2014-Oct-17 14:33N 59°35' E 023°26'13 2.1
2014-Oct-17 08:33N 59°42' E 023°07'8 1.6
2014-Oct-17 03:28N 59°49' E 022°57'35217.7
2014-Oct-16 07:33N 55°36' E 015°18'1818.6
2014-Oct-16 06:33N 55°27' E 014°50'1818.1
2014-Oct-16 05:33N 55°15' E 014°27'1917.7
2014-Oct-16 04:31N 55°02' E 014°04'5518.4
2014-Oct-16 01:33N 54°41' E 012°36'1818.3
2014-Oct-16 00:32N 54°28' E 012°13'1917.2
2014-Oct-15 23:25N 54°18' E 011°45'1918.6
2014-Oct-15 22:24N 54°09' E 011°17'17 0.9
2014-Oct-15 03:25N 53°59' E 010°54'1416.4
2014-Oct-15 02:33N 54°08' E 011°12'1817.3
2014-Oct-15 01:31N 54°18' E 011°37'1717.0
2014-Oct-15 00:33N 54°26' E 012°02'1514.8
2014-Oct-14 23:34N 54°37' E 012°19'7316.9
2014-Oct-14 19:13N 55°11' E 014°12'1117.2
2014-Oct-14 18:33N 55°19' E 014°26'1717.2
2014-Oct-14 17:33N 55°30' E 014°50'1817.1
2014-Oct-14 16:32N 55°38' E 015°16'1817.2
2014-Oct-14 15:28N 55°48' E 015°44'1617.2
2014-Oct-14 14:33N 55°56' E 016°08'31017.1
2014-Oct-13 20:27N 59°38' E 022°53'1111.8
2014-Oct-13 19:29N 59°49' E 022°57'0 0.0
2014-Oct-13 15:30N 59°49' E 022°57'  
Track history (hours):
 
Tides and Currents Weather Stations Pressure Air Temp Water Temp Dewpoint Dewpoint Depression Visibility Wind Speed Wind Dir Waves Ship Positions

Pulpca

Last reported at 2014-Oct-23 02:33 UTC. Time now 2014-Oct-23 16:37 UTC.
Position N 54°08' E 011°11'.

Length 205 m; draft 6.7 m.

Type: Ship (hazmat cat A). MMSI: 245097000.

Date/timePositionNaut miles runAvg speedWind from/ knotsBaromVisibWave heightAir tempDewpointWater temp
2014-Oct-23 02:33N 54°08' E 011°11'1616.3
2014-Oct-23 01:33N 54°17' E 011°34'1716.8
2014-Oct-23 00:33N 54°25' E 011°59'6415.9
2014-Oct-22 20:32N 54°58' E 013°35'1616.7
2014-Oct-22 19:34N 55°04' E 014°01'1716.7
2014-Oct-22 18:33N 55°15' E 014°22'1717.0
2014-Oct-22 17:33N 55°28' E 014°42'1716.7
2014-Oct-22 16:33N 55°37' E 015°08'1816.8
2014-Oct-22 15:30N 55°45' E 015°35'1616.7
2014-Oct-22 14:33N 55°54' E 015°58'1716.8
2014-Oct-22 13:33N 56°03' E 016°24'30516.9
2014-Oct-21 19:33N 59°42' E 023°02'8 1.9
2014-Oct-21 15:27N 59°49' E 022°56'1415.8
2014-Oct-21 14:33N 59°39' E 023°15'2 0.4
2014-Oct-21 08:10N 59°37' E 023°19'1521.6
2014-Oct-21 07:28N 59°48' E 022°58'1 0.3
2014-Oct-21 03:13N 59°49' E 022°57'0 0.0
2014-Oct-20 20:16N 59°49' E 022°57'0 0.0
2014-Oct-20 16:20N 59°49' E 022°57'3 4.3
2014-Oct-20 15:33N 59°47' E 023°00'34719.3
2014-Oct-19 21:33N 55°38' E 015°27'2020.1
2014-Oct-19 20:33N 55°28' E 014°56'1919.4
2014-Oct-19 19:33N 55°16' E 014°29'2019.5
2014-Oct-19 18:33N 55°02' E 014°07'2020.0
2014-Oct-19 17:33N 54°55' E 013°34'4219.9
2014-Oct-19 15:27N 54°38' E 012°27'1719.5
2014-Oct-19 14:33N 54°25' E 012°07'37 2.8
2014-Oct-19 01:33N 54°08' E 011°11'1916.9
2014-Oct-19 00:27N 54°18' E 011°39'1516.7
2014-Oct-18 23:33N 54°26' E 012°01'1715.7
2014-Oct-18 22:28N 54°38' E 012°21'1617.3
2014-Oct-18 21:33N 54°47' E 012°44'3617.2
2014-Oct-18 19:26N 55°01' E 013°42'3216.7
2014-Oct-18 17:32N 55°20' E 014°26'1717.6
2014-Oct-18 16:33N 55°31' E 014°50'1817.7
2014-Oct-18 15:32N 55°40' E 015°17'1717.8
2014-Oct-18 14:33N 55°49' E 015°44'1817.9
2014-Oct-18 13:33N 55°58' E 016°11'30617.7
2014-Oct-17 20:14N 59°38' E 022°52'914.0
2014-Oct-17 19:33N 59°46' E 023°01'4 0.9
2014-Oct-17 15:31N 59°49' E 022°57'2121.2
2014-Oct-17 14:33N 59°35' E 023°26'13 2.1
2014-Oct-17 08:33N 59°42' E 023°07'8 1.6
2014-Oct-17 03:28N 59°49' E 022°57'35217.7
2014-Oct-16 07:33N 55°36' E 015°18'1818.6
2014-Oct-16 06:33N 55°27' E 014°50'1818.1
2014-Oct-16 05:33N 55°15' E 014°27'1917.7
2014-Oct-16 04:31N 55°02' E 014°04'5518.4
2014-Oct-16 01:33N 54°41' E 012°36'1818.3
2014-Oct-16 00:32N 54°28' E 012°13'1917.2
2014-Oct-15 23:25N 54°18' E 011°45'1918.6
2014-Oct-15 22:24N 54°09' E 011°17'17 0.9
2014-Oct-15 03:25N 53°59' E 010°54'1416.4
2014-Oct-15 02:33N 54°08' E 011°12'1817.3
2014-Oct-15 01:31N 54°18' E 011°37'1717.0
2014-Oct-15 00:33N 54°26' E 012°02'1514.8
2014-Oct-14 23:34N 54°37' E 012°19'7316.9
2014-Oct-14 19:13N 55°11' E 014°12'1117.2
2014-Oct-14 18:33N 55°19' E 014°26'1717.2
2014-Oct-14 17:33N 55°30' E 014°50'1817.1
2014-Oct-14 16:32N 55°38' E 015°16'1817.2
2014-Oct-14 15:28N 55°48' E 015°44'1617.2
2014-Oct-14 14:33N 55°56' E 016°08'31017.1
2014-Oct-13 20:27N 59°38' E 022°53'1111.8
2014-Oct-13 19:29N 59°49' E 022°57'0 0.0
2014-Oct-13 15:30N 59°49' E 022°57'  

Dump ship's entire track history